Time;durP1;ratioP1;P1;durP2;ratioP2;P2;SDS_P1;SDS_P2;PMS_P1;PMS_P2;Temp;Humidity;BMP_temperature;BMP_pressure;BME280_temperature;BME280_humidity;BME280_pressure;Samples;Min_cycle;Max_cycle;Signal;HPM_P1;HPM_P2
2023/08/20 00:02:38;;;;;;;;;;;;;;;;;;6293794;28;19923;-77
2023/08/20 00:05:39;;;;;;;;;;;;;;;;;;6291703;28;19928;-77
2023/08/20 00:08:41;;;;;;;;;;;;;;;;;;6292234;28;19924;-77
2023/08/20 00:11:42;;;;;;;;;;;;;;;;;;6289967;28;19917;-77
2023/08/20 00:14:43;;;;;;;;;;;;;;;;;;6287938;28;19920;-77
2023/08/20 00:17:44;;;;;;;;;;;;;;;;;;6292981;28;19925;-76
2023/08/20 00:20:46;;;;;;;;;;;;;;;;;;6294722;28;19929;-77
2023/08/20 00:23:48;;;;;;;;;;;;;;;;;;6292327;28;19932;-77
2023/08/20 00:26:49;;;;;;;;;;;;;;;;;;6292789;28;19924;-77
2023/08/20 00:29:50;;;;;;;;;;;;;;;;;;6293188;28;19924;-77
2023/08/20 00:32:51;;;;;;;;;;;;;;;;;;6291183;28;19932;-77
2023/08/20 00:35:52;;;;;;;;;;;;;;;;;;6291787;28;19930;-76
2023/08/20 00:38:54;;;;;;;;;;;;;;;;;;6291656;28;19962;-76
2023/08/20 00:41:55;;;;;;;;;;;;;;;;;;6290741;28;19930;-77
2023/08/20 00:44:56;;;;;;;;;;;;;;;;;;6291581;28;19923;-77
2023/08/20 00:47:57;;;;;;;;;;;;;;;;;;6292015;28;19924;-78
2023/08/20 00:50:58;;;;;;;;;;;;;;;;;;6291106;28;19931;-80
2023/08/20 00:54:00;;;;;;;;;;;;;;;;;;6291634;28;19929;-77
2023/08/20 00:57:01;;;;;;;;;;;;;;;;;;6290066;28;19924;-77
2023/08/20 01:00:05;;;;;;;;;;;;;;;;;;6290104;28;19950;-77
2023/08/20 01:03:06;;;;;;;;;;;;;;;;;;6292509;28;19924;-77
2023/08/20 01:06:08;;;;;;;;;;;;;;;;;;6291763;28;19928;-77
2023/08/20 01:09:09;;;;;;;;;;;;;;;;;;6290790;28;19916;-77
2023/08/20 01:12:10;;;;;;;;;;;;;;;;;;6291716;28;19939;-78
2023/08/20 01:15:13;;;;;;;;;;;;;;;;;;6292208;28;20151;-77
2023/08/20 01:18:15;;;;;;;;;;;;;;;;;;6292549;28;19935;-78
2023/08/20 01:21:16;;;;;;;;;;;;;;;;;;6293302;28;19916;-77
2023/08/20 01:24:17;;;;;;;;;;;;;;;;;;6295843;28;19925;-77
2023/08/20 01:27:19;;;;;;;;;;;;;;;;;;6290002;28;19917;-77
2023/08/20 01:30:20;;;;;;;;;;;;;;;;;;6287049;28;19917;-77
2023/08/20 01:33:21;;;;;;;;;;;;;;;;;;6292251;28;19929;-77
2023/08/20 01:36:22;;;;;;;;;;;;;;;;;;6290438;28;20105;-77
2023/08/20 01:39:24;;;;;;;;;;;;;;;;;;6292505;28;19916;-77
2023/08/20 01:42:25;;;;;;;;;;;;;;;;;;6289568;28;19954;-77
2023/08/20 01:45:27;;;;;;;;;;;;;;;;;;6288982;28;19939;-78
2023/08/20 01:48:28;;;;;;;;;;;;;;;;;;6292102;28;20243;-77
2023/08/20 01:51:29;;;;;;;;;;;;;;;;;;6289240;28;19986;-77
2023/08/20 01:54:30;;;;;;;;;;;;;;;;;;6281788;28;19928;-80
2023/08/20 01:57:32;;;;;;;;;;;;;;;;;;6292633;28;19916;-80
2023/08/20 02:00:33;;;;;;;;;;;;;;;;;;6289327;28;19967;-80
2023/08/20 02:03:34;;;;;;;;;;;;;;;;;;6288711;28;19923;-80
2023/08/20 02:06:36;;;;;;;;;;;;;;;;;;6289017;28;19931;-79
2023/08/20 02:09:37;;;;;;;;;;;;;;;;;;6287022;28;20216;-80
2023/08/20 02:12:38;;;;;;;;;;;;;;;;;;6286332;28;19917;-79
2023/08/20 02:15:39;;;;;;;;;;;;;;;;;;6284336;28;19916;-78
2023/08/20 02:18:41;;;;;;;;;;;;;;;;;;6289442;28;19931;-79
2023/08/20 02:21:42;;;;;;;;;;;;;;;;;;6288482;28;19923;-79
2023/08/20 02:24:43;;;;;;;;;;;;;;;;;;6289891;28;19928;-79
2023/08/20 02:27:44;;;;;;;;;;;;;;;;;;6291460;28;19916;-79
2023/08/20 02:30:45;;;;;;;;;;;;;;;;;;6287136;28;19920;-79
2023/08/20 02:33:47;;;;;;;;;;;;;;;;;;6281748;28;19917;-79
2023/08/20 02:36:49;;;;;;;;;;;;;;;;;;6289606;28;19932;-80
2023/08/20 02:39:50;;;;;;;;;;;;;;;;;;6291685;28;19924;-79
2023/08/20 02:42:51;;;;;;;;;;;;;;;;;;6287561;28;19931;-80
2023/08/20 02:45:53;;;;;;;;;;;;;;;;;;6288829;28;19925;-79
2023/08/20 02:48:54;;;;;;;;;;;;;;;;;;6291022;28;20197;-79
2023/08/20 02:51:55;;;;;;;;;;;;;;;;;;6291460;28;20442;-80
2023/08/20 02:54:56;;;;;;;;;;;;;;;;;;6293457;28;20208;-79
2023/08/20 02:57:58;;;;;;;;;;;;;;;;;;6292730;28;19925;-79
2023/08/20 03:00:59;;;;;;;;;;;;;;;;;;6292675;28;19917;-79
2023/08/20 03:04:01;;;;;;;;;;;;;;;;;;6292036;28;19924;-79
2023/08/20 03:07:02;;;;;;;;;;;;;;;;;;6293644;28;19948;-79
2023/08/20 03:10:03;;;;;;;;;;;;;;;;;;6292769;28;19955;-79
2023/08/20 03:13:05;;;;;;;;;;;;;;;;;;6292215;28;20124;-79
2023/08/20 03:16:06;;;;;;;;;;;;;;;;;;6291987;28;19916;-79
2023/08/20 03:19:07;;;;;;;;;;;;;;;;;;6287719;28;20205;-79
2023/08/20 03:22:09;;;;;;;;;;;;;;;;;;6290416;28;19929;-80
2023/08/20 03:25:10;;;;;;;;;;;;;;;;;;6289844;28;20270;-80
2023/08/20 03:28:11;;;;;;;;;;;;;;;;;;6291712;28;19966;-79
2023/08/20 03:31:12;;;;;;;;;;;;;;;;;;6293264;28;19916;-79
2023/08/20 03:34:14;;;;;;;;;;;;;;;;;;6286238;28;19924;-79
2023/08/20 03:37:15;;;;;;;;;;;;;;;;;;6291298;28;19916;-79
2023/08/20 03:40:18;;;;;;;;;;;;;;;;;;6290176;28;20200;-78
2023/08/20 03:43:19;;;;;;;;;;;;;;;;;;6291930;28;20205;-78
2023/08/20 03:46:20;;;;;;;;;;;;;;;;;;6293741;28;19924;-78
2023/08/20 03:49:22;;;;;;;;;;;;;;;;;;6290336;28;19928;-78
2023/08/20 03:52:23;;;;;;;;;;;;;;;;;;6291767;28;19924;-79
2023/08/20 03:55:24;;;;;;;;;;;;;;;;;;6292691;28;19924;-80
2023/08/20 03:58:25;;;;;;;;;;;;;;;;;;6291586;28;19924;-80
2023/08/20 04:01:27;;;;;;;;;;;;;;;;;;6292350;28;19939;-77
2023/08/20 04:04:28;;;;;;;;;;;;;;;;;;6291068;28;20224;-79
2023/08/20 04:07:29;;;;;;;;;;;;;;;;;;6290449;28;20275;-78
2023/08/20 04:10:31;;;;;;;;;;;;;;;;;;6291684;28;19916;-77
2023/08/20 04:13:32;;;;;;;;;;;;;;;;;;6293193;28;19970;-77
2023/08/20 04:16:33;;;;;;;;;;;;;;;;;;6291160;28;19930;-78
2023/08/20 04:19:34;;;;;;;;;;;;;;;;;;6292217;28;20042;-78
2023/08/20 04:22:37;;;;;;;;;;;;;;;;;;6291198;28;19916;-78
2023/08/20 04:25:38;;;;;;;;;;;;;;;;;;6285802;28;19924;-78
2023/08/20 04:28:39;;;;;;;;;;;;;;;;;;6289810;28;19924;-78
2023/08/20 04:31:40;;;;;;;;;;;;;;;;;;6292579;28;19924;-78
2023/08/20 04:34:41;;;;;;;;;;;;;;;;;;6290670;28;19920;-77
2023/08/20 04:37:43;;;;;;;;;;;;;;;;;;6290311;28;19916;-78
2023/08/20 04:40:44;;;;;;;;;;;;;;;;;;6290650;28;19924;-77
2023/08/20 04:43:45;;;;;;;;;;;;;;;;;;6291804;28;20209;-77
2023/08/20 04:46:46;;;;;;;;;;;;;;;;;;6290268;28;19924;-77
2023/08/20 04:49:47;;;;;;;;;;;;;;;;;;6291703;28;19916;-77
2023/08/20 04:52:49;;;;;;;;;;;;;;;;;;6287261;28;21104;-77
2023/08/20 04:55:50;;;;;;;;;;;;;;;;;;6285129;28;19928;-79
2023/08/20 04:58:51;;;;;;;;;;;;;;;;;;6289483;28;20147;-79
2023/08/20 05:01:52;;;;;;;;;;;;;;;;;;6290135;28;19928;-78
2023/08/20 05:04:53;;;;;;;;;;;;;;;;;;6291043;28;19920;-78
2023/08/20 05:07:55;;;;;;;;;;;;;;;;;;6290301;28;19931;-79
2023/08/20 05:10:56;;;;;;;;;;;;;;;;;;6291660;28;20208;-78
2023/08/20 05:13:57;;;;;;;;;;;;;;;;;;6289520;28;19924;-78
2023/08/20 05:16:58;;;;;;;;;;;;;;;;;;6289980;28;19924;-78
2023/08/20 05:19:59;;;;;;;;;;;;;;;;;;6288176;28;19928;-78
2023/08/20 05:23:01;;;;;;;;;;;;;;;;;;6289777;28;19916;-78
2023/08/20 05:26:02;;;;;;;;;;;;;;;;;;6281574;28;19924;-78
2023/08/20 05:29:03;;;;;;;;;;;;;;;;;;6293014;28;19924;-77
2023/08/20 05:32:04;;;;;;;;;;;;;;;;;;6291953;28;19917;-78
2023/08/20 05:35:05;;;;;;;;;;;;;;;;;;6276875;28;19917;-77
2023/08/20 05:38:07;;;;;;;;;;;;;;;;;;6286443;28;20222;-77
2023/08/20 05:41:08;;;;;;;;;;;;;;;;;;6292724;28;19924;-77
2023/08/20 05:44:09;;;;;;;;;;;;;;;;;;6288299;28;19923;-78
2023/08/20 05:47:10;;;;;;;;;;;;;;;;;;6283668;28;19923;-78
2023/08/20 05:50:11;;;;;;;;;;;;;;;;;;6290244;28;19924;-78
2023/08/20 05:53:13;;;;;;;;;;;;;;;;;;6289562;28;20106;-77
2023/08/20 05:56:14;;;;;;;;;;;;;;;;;;6289438;28;19923;-77
2023/08/20 05:59:15;;;;;;;;;;;;;;;;;;6288067;28;19923;-77
2023/08/20 06:02:16;;;;;;;;;;;;;;;;;;6288333;28;19940;-78
2023/08/20 06:05:18;;;;;;;;;;;;;;;;;;6291345;28;20081;-78
2023/08/20 06:08:19;;;;;;;;;;;;;;;;;;6289027;28;19924;-78
2023/08/20 06:11:20;;;;;;;;;;;;;;;;;;6282865;28;20232;-80
2023/08/20 06:14:21;;;;;;;;;;;;;;;;;;6283089;28;19978;-78
2023/08/20 06:17:23;;;;;;;;;;;;;;;;;;6281816;28;19921;-77
2023/08/20 06:20:24;;;;;;;;;;;;;;;;;;6290099;28;19925;-78
2023/08/20 06:23:25;;;;;;;;;;;;;;;;;;6290499;28;19928;-78
2023/08/20 06:26:27;;;;;;;;;;;;;;;;;;6288201;28;20082;-78
2023/08/20 06:29:28;;;;;;;;;;;;;;;;;;6288670;28;19916;-77
2023/08/20 06:32:29;;;;;;;;;;;;;;;;;;6289583;28;20217;-77
2023/08/20 06:35:30;;;;;;;;;;;;;;;;;;6289482;28;19939;-77
2023/08/20 06:38:31;;;;;;;;;;;;;;;;;;6288777;28;19924;-77
2023/08/20 06:41:33;;;;;;;;;;;;;;;;;;6291367;28;20021;-77
2023/08/20 06:44:35;;;;;;;;;;;;;;;;;;6287753;28;20213;-77
2023/08/20 06:47:36;;;;;;;;;;;;;;;;;;6289067;28;19995;-77
2023/08/20 06:50:37;;;;;;;;;;;;;;;;;;6286482;28;20038;-77
2023/08/20 06:53:40;;;;;;;;;;;;;;;;;;6291508;28;19962;-77
2023/08/20 06:56:41;;;;;;;;;;;;;;;;;;6287672;28;20102;-77
2023/08/20 06:59:43;;;;;;;;;;;;;;;;;;6288746;28;19920;-79
2023/08/20 07:02:44;;;;;;;;;;;;;;;;;;6290832;28;19925;-77
2023/08/20 07:05:46;;;;;;;;;;;;;;;;;;6296108;28;19920;-77
2023/08/20 07:08:47;;;;;;;;;;;;;;;;;;6292477;28;19932;-77
2023/08/20 07:11:48;;;;;;;;;;;;;;;;;;6292680;28;20193;-77
2023/08/20 07:14:49;;;;;;;;;;;;;;;;;;6293285;28;19925;-77
2023/08/20 07:17:51;;;;;;;;;;;;;;;;;;6293713;28;19923;-77
2023/08/20 07:20:52;;;;;;;;;;;;;;;;;;6293123;28;19916;-77
2023/08/20 07:23:53;;;;;;;;;;;;;;;;;;6294238;28;19935;-77
2023/08/20 07:26:59;;;;;;;;;;;;;;;;;;6289839;28;19947;-77
2023/08/20 07:30:00;;;;;;;;;;;;;;;;;;6290429;28;19971;-77
2023/08/20 07:33:01;;;;;;;;;;;;;;;;;;6293434;28;20232;-78
2023/08/20 07:36:02;;;;;;;;;;;;;;;;;;6291543;28;19925;-77
2023/08/20 07:39:04;;;;;;;;;;;;;;;;;;6294759;28;19970;-78
2023/08/20 07:42:05;;;;;;;;;;;;;;;;;;6289144;28;20209;-77
2023/08/20 07:45:07;;;;;;;;;;;;;;;;;;6294001;28;19924;-77
2023/08/20 07:48:08;;;;;;;;;;;;;;;;;;6289104;28;20021;-77
2023/08/20 07:51:09;;;;;;;;;;;;;;;;;;6292386;28;19932;-78
2023/08/20 07:54:10;;;;;;;;;;;;;;;;;;6291753;28;19931;-77
2023/08/20 07:57:11;;;;;;;;;;;;;;;;;;6283698;28;20208;-77
2023/08/20 08:00:13;;;;;;;;;;;;;;;;;;6291193;28;19970;-77
2023/08/20 08:03:16;;;;;;;;;;;;;;;;;;6288935;28;19917;-77
2023/08/20 08:06:18;;;;;;;;;;;;;;;;;;6292383;28;19924;-76
2023/08/20 08:09:19;;;;;;;;;;;;;;;;;;6292802;28;20156;-77
2023/08/20 08:12:20;;;;;;;;;;;;;;;;;;6290965;28;20256;-77
2023/08/20 08:15:22;;;;;;;;;;;;;;;;;;6293075;28;19916;-77
2023/08/20 08:18:23;;;;;;;;;;;;;;;;;;6289774;28;20208;-77
2023/08/20 08:21:24;;;;;;;;;;;;;;;;;;6289537;28;19924;-77
2023/08/20 08:24:25;;;;;;;;;;;;;;;;;;6290645;28;19924;-76
2023/08/20 08:27:26;;;;;;;;;;;;;;;;;;6293478;28;19962;-77
2023/08/20 08:30:29;;;;;;;;;;;;;;;;;;6290361;28;19924;-77
2023/08/20 08:33:30;;;;;;;;;;;;;;;;;;6293052;28;19932;-77
2023/08/20 08:36:31;;;;;;;;;;;;;;;;;;6292120;28;20109;-77
2023/08/20 08:39:33;;;;;;;;;;;;;;;;;;6291176;28;19931;-77
2023/08/20 08:42:34;;;;;;;;;;;;;;;;;;6289503;28;19939;-77
2023/08/20 08:45:35;;;;;;;;;;;;;;;;;;6289644;28;19924;-77
2023/08/20 08:48:36;;;;;;;;;;;;;;;;;;6291894;28;19924;-77
2023/08/20 08:51:37;;;;;;;;;;;;;;;;;;6290652;28;19923;-77
2023/08/20 08:54:39;;;;;;;;;;;;;;;;;;6288285;28;19925;-79
2023/08/20 08:57:40;;;;;;;;;;;;;;;;;;6285435;28;19916;-77
2023/08/20 09:00:41;;;;;;;;;;;;;;;;;;6292091;28;19917;-77
2023/08/20 09:03:42;;;;;;;;;;;;;;;;;;6288921;28;19950;-77
2023/08/20 09:06:44;;;;;;;;;;;;;;;;;;6285311;28;19928;-77
2023/08/20 09:09:45;;;;;;;;;;;;;;;;;;6290027;28;19931;-76
2023/08/20 09:12:46;;;;;;;;;;;;;;;;;;6289824;28;20243;-77
2023/08/20 09:15:47;;;;;;;;;;;;;;;;;;6290816;28;19924;-77
2023/08/20 09:18:48;;;;;;;;;;;;;;;;;;6290424;28;19917;-77
2023/08/20 09:21:52;;;;;;;;;;;;;;;;;;6293221;28;19923;-77
2023/08/20 09:24:54;;;;;;;;;;;;;;;;;;6288938;28;19924;-77
2023/08/20 09:27:55;;;;;;;;;;;;;;;;;;6291458;28;19924;-77
2023/08/20 09:30:56;;;;;;;;;;;;;;;;;;6290009;28;19925;-77
2023/08/20 09:33:58;;;;;;;;;;;;;;;;;;6288775;28;19924;-77
2023/08/20 09:36:59;;;;;;;;;;;;;;;;;;6291036;28;19931;-77
2023/08/20 09:40:00;;;;;;;;;;;;;;;;;;6289181;28;19924;-77
2023/08/20 09:43:02;;;;;;;;;;;;;;;;;;6289550;28;19931;-77
2023/08/20 09:46:03;;;;;;;;;;;;;;;;;;6289180;28;19936;-77
2023/08/20 09:49:04;;;;;;;;;;;;;;;;;;6288212;28;19924;-77
2023/08/20 09:52:05;;;;;;;;;;;;;;;;;;6288250;28;19924;-77
2023/08/20 09:55:07;;;;;;;;;;;;;;;;;;6284944;28;20212;-77
2023/08/20 09:58:08;;;;;;;;;;;;;;;;;;6286896;28;19925;-77
2023/08/20 10:01:09;;;;;;;;;;;;;;;;;;6289011;28;19982;-76
2023/08/20 10:04:10;;;;;;;;;;;;;;;;;;6283684;28;19932;-76
2023/08/20 10:07:12;;;;;;;;;;;;;;;;;;6285928;28;19917;-79
2023/08/20 10:10:13;;;;;;;;;;;;;;;;;;6287568;28;20189;-76
2023/08/20 10:13:14;;;;;;;;;;;;;;;;;;6286869;28;19923;-76
2023/08/20 10:16:18;;;;;;;;;;;;;;;;;;6288380;28;20212;-76
2023/08/20 10:19:19;;;;;;;;;;;;;;;;;;6289533;28;20108;-76
2023/08/20 10:22:20;;;;;;;;;;;;;;;;;;6288023;28;20698;-76
2023/08/20 10:25:21;;;;;;;;;;;;;;;;;;6288682;28;19929;-76
2023/08/20 10:28:23;;;;;;;;;;;;;;;;;;6289384;28;20224;-77
2023/08/20 10:31:24;;;;;;;;;;;;;;;;;;6288533;28;19920;-76
2023/08/20 10:34:25;;;;;;;;;;;;;;;;;;6288463;28;19924;-79
2023/08/20 10:37:27;;;;;;;;;;;;;;;;;;6294548;28;19924;-77
2023/08/20 10:40:28;;;;;;;;;;;;;;;;;;6293519;28;19916;-77
2023/08/20 10:43:29;;;;;;;;;;;;;;;;;;6292274;28;19939;-77
2023/08/20 10:46:31;;;;;;;;;;;;;;;;;;6294285;28;19925;-77
2023/08/20 10:49:32;;;;;;;;;;;;;;;;;;6294132;28;19924;-77
2023/08/20 10:52:33;;;;;;;;;;;;;;;;;;6291216;28;19928;-76
2023/08/20 10:55:34;;;;;;;;;;;;;;;;;;6293666;28;19946;-76
2023/08/20 10:58:36;;;;;;;;;;;;;;;;;;6293270;28;19920;-76
2023/08/20 11:01:37;;;;;;;;;;;;;;;;;;6294175;28;19928;-77
2023/08/20 11:04:39;;;;;;;;;;;;;;;;;;6294519;28;19924;-79
2023/08/20 11:07:40;;;;;;;;;;;;;;;;;;6294443;28;19924;-76
2023/08/20 11:10:41;;;;;;;;;;;;;;;;;;6293145;28;19925;-76
2023/08/20 11:13:42;;;;;;;;;;;;;;;;;;6295244;28;19928;-77
2023/08/20 11:16:44;;;;;;;;;;;;;;;;;;6291798;28;19924;-79
2023/08/20 11:19:45;;;;;;;;;;;;;;;;;;6292513;28;20224;-76
2023/08/20 11:22:46;;;;;;;;;;;;;;;;;;6294835;28;19932;-76
2023/08/20 11:25:47;;;;;;;;;;;;;;;;;;6293223;28;19916;-77
2023/08/20 11:28:49;;;;;;;;;;;;;;;;;;6291882;28;19924;-77
2023/08/20 11:31:50;;;;;;;;;;;;;;;;;;6289201;28;19932;-78
2023/08/20 11:34:51;;;;;;;;;;;;;;;;;;6293610;28;19917;-79
2023/08/20 11:37:52;;;;;;;;;;;;;;;;;;6293458;28;19925;-77
2023/08/20 11:40:53;;;;;;;;;;;;;;;;;;6292503;28;20109;-78
2023/08/20 11:43:55;;;;;;;;;;;;;;;;;;6293897;28;19924;-79
2023/08/20 11:46:56;;;;;;;;;;;;;;;;;;6289308;28;19966;-78
2023/08/20 11:49:57;;;;;;;;;;;;;;;;;;6291214;28;20066;-79
2023/08/20 11:53:01;;;;;;;;;;;;;;;;;;6291770;28;19947;-79
2023/08/20 11:56:02;;;;;;;;;;;;;;;;;;6290924;28;19929;-78
2023/08/20 11:59:03;;;;;;;;;;;;;;;;;;6293211;28;20205;-77
2023/08/20 12:02:05;;;;;;;;;;;;;;;;;;6289832;28;19929;-76
2023/08/20 12:05:06;;;;;;;;;;;;;;;;;;6290960;28;20547;-77
2023/08/20 12:08:07;;;;;;;;;;;;;;;;;;6292043;28;19923;-77
2023/08/20 12:11:09;;;;;;;;;;;;;;;;;;6293193;28;19952;-77
2023/08/20 12:14:10;;;;;;;;;;;;;;;;;;6292737;28;20251;-79
2023/08/20 12:18:32;;;;;;;;;;;;;;;;;;6270541;27;1995394;-77
2023/08/20 12:21:33;;;;;;;;;;;;;;;;;;6368200;27;20287;-77
2023/08/20 12:24:35;;;;;;;;;;;;;;;;;;6367243;27;20192;-77
2023/08/20 12:27:36;;;;;;;;;;;;;;;;;;6368742;27;20204;-77
2023/08/20 12:30:38;;;;;;;;;;;;;;;;;;6366253;27;19927;-77
2023/08/20 12:33:39;;;;;;;;;;;;;;;;;;6366486;27;19966;-77
2023/08/20 12:36:41;;;;;;;;;;;;;;;;;;6363696;27;19919;-77
2023/08/20 12:39:42;;;;;;;;;;;;;;;;;;6365649;27;19928;-77
2023/08/20 12:42:43;;;;;;;;;;;;;;;;;;6365240;27;20263;-77
2023/08/20 12:45:44;;;;;;;;;;;;;;;;;;6364466;27;19970;-77
2023/08/20 12:48:45;;;;;;;;;;;;;;;;;;6366866;27;19943;-78
2023/08/20 12:51:47;;;;;;;;;;;;;;;;;;6366052;27;19928;-78
2023/08/20 12:54:48;;;;;;;;;;;;;;;;;;6364761;27;19924;-77
2023/08/20 12:57:49;;;;;;;;;;;;;;;;;;6367056;27;20231;-77
2023/08/20 13:00:51;;;;;;;;;;;;;;;;;;6363151;27;19937;-77
2023/08/20 13:03:52;;;;;;;;;;;;;;;;;;6365036;27;19931;-77
2023/08/20 13:06:53;;;;;;;;;;;;;;;;;;6363880;27;19982;-77
2023/08/20 13:09:54;;;;;;;;;;;;;;;;;;6362986;27;20282;-76
2023/08/20 13:12:55;;;;;;;;;;;;;;;;;;6363881;27;19928;-77
2023/08/20 13:15:57;;;;;;;;;;;;;;;;;;6362301;28;20120;-79
2023/08/20 13:18:58;;;;;;;;;;;;;;;;;;6365721;28;19963;-79
2023/08/20 13:21:59;;;;;;;;;;;;;;;;;;6368723;27;19935;-77
2023/08/20 13:25:00;;;;;;;;;;;;;;;;;;6362395;27;19926;-77
2023/08/20 13:28:03;;;;;;;;;;;;;;;;;;6357471;27;19931;-77
2023/08/20 13:31:04;;;;;;;;;;;;;;;;;;6347818;28;19935;-77
2023/08/20 13:34:05;;;;;;;;;;;;;;;;;;6345872;28;19931;-77
2023/08/20 13:37:07;;;;;;;;;;;;;;;;;;6347432;28;19924;-77
2023/08/20 13:40:09;;;;;;;;;;;;;;;;;;6349023;28;19920;-77
2023/08/20 13:43:10;;;;;;;;;;;;;;;;;;6348200;28;19927;-78
2023/08/20 13:46:11;;;;;;;;;;;;;;;;;;6348736;27;19943;-77
2023/08/20 13:49:12;;;;;;;;;;;;;;;;;;6348348;28;19930;-77
2023/08/20 13:52:14;;;;;;;;;;;;;;;;;;6348929;28;20196;-78
2023/08/20 13:55:15;;;;;;;;;;;;;;;;;;6348503;27;19931;-77
2023/08/20 13:58:16;;;;;;;;;;;;;;;;;;6349428;28;20018;-77
2023/08/20 14:01:17;;;;;;;;;;;;;;;;;;6348554;28;20000;-78
2023/08/20 14:04:19;;;;;;;;;;;;;;;;;;6346490;28;19928;-77
2023/08/20 14:07:20;;;;;;;;;;;;;;;;;;6347280;28;20089;-77
2023/08/20 14:10:21;;;;;;;;;;;;;;;;;;6345969;28;19935;-77
2023/08/20 14:13:22;;;;;;;;;;;;;;;;;;6346338;28;20184;-78
2023/08/20 14:16:23;;;;;;;;;;;;;;;;;;6345774;28;19942;-78
2023/08/20 14:19:25;;;;;;;;;;;;;;;;;;6345838;27;20204;-78
2023/08/20 14:22:26;;;;;;;;;;;;;;;;;;6349452;28;20214;-76
2023/08/20 14:25:27;;;;;;;;;;;;;;;;;;6344466;28;19932;-79
2023/08/20 14:28:28;;;;;;;;;;;;;;;;;;6347382;28;19948;-79
2023/08/20 14:31:30;;;;;;;;;;;;;;;;;;6345816;28;19939;-79
2023/08/20 14:34:31;;;;;;;;;;;;;;;;;;6344922;28;19919;-76
2023/08/20 14:37:32;;;;;;;;;;;;;;;;;;6345217;28;19994;-78
2023/08/20 14:40:34;;;;;;;;;;;;;;;;;;6348335;28;19935;-79
2023/08/20 14:43:35;;;;;;;;;;;;;;;;;;6345066;28;19943;-79
2023/08/20 14:46:36;;;;;;;;;;;;;;;;;;6345702;28;20208;-79
2023/08/20 14:49:37;;;;;;;;;;;;;;;;;;6346254;28;19927;-79
2023/08/20 14:52:39;;;;;;;;;;;;;;;;;;6347147;28;19919;-79
2023/08/20 14:55:40;;;;;;;;;;;;;;;;;;6345788;28;19928;-78
2023/08/20 14:58:41;;;;;;;;;;;;;;;;;;6345249;28;19926;-79
2023/08/20 15:01:42;;;;;;;;;;;;;;;;;;6344646;28;20208;-79
2023/08/20 15:04:44;;;;;;;;;;;;;;;;;;6344694;27;19963;-79
2023/08/20 15:07:45;;;;;;;;;;;;;;;;;;6343910;28;20142;-78
2023/08/20 15:10:46;;;;;;;;;;;;;;;;;;6344886;28;19964;-79
2023/08/20 15:13:47;;;;;;;;;;;;;;;;;;6344448;28;20200;-79
2023/08/20 15:16:49;;;;;;;;;;;;;;;;;;6343834;28;21955;-78
2023/08/20 15:19:50;;;;;;;;;;;;;;;;;;6344694;28;20147;-78
2023/08/20 15:22:51;;;;;;;;;;;;;;;;;;6345411;28;19919;-78
2023/08/20 15:25:53;;;;;;;;;;;;;;;;;;6342678;28;19985;-77
2023/08/20 15:28:54;;;;;;;;;;;;;;;;;;6343003;28;20265;-78
2023/08/20 15:31:55;;;;;;;;;;;;;;;;;;6346043;28;19920;-78
2023/08/20 15:34:56;;;;;;;;;;;;;;;;;;6343976;28;20104;-78
2023/08/20 15:37:58;;;;;;;;;;;;;;;;;;6343100;28;19935;-77
2023/08/20 15:40:59;;;;;;;;;;;;;;;;;;6345280;28;19935;-77
2023/08/20 15:44:00;;;;;;;;;;;;;;;;;;6340437;28;19928;-78
2023/08/20 15:47:01;;;;;;;;;;;;;;;;;;6342551;28;20235;-77
2023/08/20 15:50:02;;;;;;;;;;;;;;;;;;6341842;28;20033;-78
2023/08/20 15:53:04;;;;;;;;;;;;;;;;;;6343726;28;19928;-77
2023/08/20 15:56:05;;;;;;;;;;;;;;;;;;6343966;28;19920;-77
2023/08/20 15:59:06;;;;;;;;;;;;;;;;;;6345523;28;20015;-77
2023/08/20 16:02:11;;;;;;;;;;;;;;;;;;6344426;28;19927;-78
2023/08/20 16:05:12;;;;;;;;;;;;;;;;;;6343196;28;19928;-77
2023/08/20 16:08:14;;;;;;;;;;;;;;;;;;6341761;28;19928;-77
2023/08/20 16:11:16;;;;;;;;;;;;;;;;;;6345023;28;19943;-77
2023/08/20 16:14:17;;;;;;;;;;;;;;;;;;6343286;28;20199;-78
2023/08/20 16:17:18;;;;;;;;;;;;;;;;;;6343590;28;20196;-77
2023/08/20 16:20:20;;;;;;;;;;;;;;;;;;6344458;28;20273;-77
2023/08/20 16:23:21;;;;;;;;;;;;;;;;;;6345615;28;19951;-77
2023/08/20 16:26:22;;;;;;;;;;;;;;;;;;6343955;28;19947;-77
2023/08/20 16:29:24;;;;;;;;;;;;;;;;;;6344669;28;20235;-78
2023/08/20 16:32:26;;;;;;;;;;;;;;;;;;6345168;28;19919;-77
2023/08/20 16:35:27;;;;;;;;;;;;;;;;;;6341381;28;19932;-77
2023/08/20 16:38:28;;;;;;;;;;;;;;;;;;6343684;28;19920;-77
2023/08/20 16:41:29;;;;;;;;;;;;;;;;;;6347446;28;20128;-77
2023/08/20 16:44:31;;;;;;;;;;;;;;;;;;6343488;28;20317;-77
2023/08/20 16:47:32;;;;;;;;;;;;;;;;;;6343851;28;19927;-78
2023/08/20 16:50:34;;;;;;;;;;;;;;;;;;6345116;28;19932;-77
2023/08/20 16:53:35;;;;;;;;;;;;;;;;;;6341712;28;19920;-78
2023/08/20 16:56:36;;;;;;;;;;;;;;;;;;6343858;28;19928;-78
2023/08/20 16:59:37;;;;;;;;;;;;;;;;;;6343976;28;19928;-78
2023/08/20 17:02:39;;;;;;;;;;;;;;;;;;6342334;28;19926;-78
2023/08/20 17:05:40;;;;;;;;;;;;;;;;;;6347417;28;19920;-78
2023/08/20 17:08:41;;;;;;;;;;;;;;;;;;6350483;27;19919;-77
2023/08/20 17:11:43;;;;;;;;;;;;;;;;;;6348669;28;19927;-76
2023/08/20 17:14:44;;;;;;;;;;;;;;;;;;6345860;28;19927;-76
2023/08/20 17:17:45;;;;;;;;;;;;;;;;;;6346472;28;19920;-76
2023/08/20 17:20:46;;;;;;;;;;;;;;;;;;6351001;27;19927;-77
2023/08/20 17:23:48;;;;;;;;;;;;;;;;;;6348226;28;20006;-79
2023/08/20 17:26:49;;;;;;;;;;;;;;;;;;6345567;28;20249;-78
2023/08/20 17:29:50;;;;;;;;;;;;;;;;;;6348879;28;19935;-79
2023/08/20 17:32:51;;;;;;;;;;;;;;;;;;6347230;28;19928;-78
2023/08/20 17:35:53;;;;;;;;;;;;;;;;;;6347745;28;19932;-78
2023/08/20 17:38:54;;;;;;;;;;;;;;;;;;6348551;28;20146;-78
2023/08/20 17:41:55;;;;;;;;;;;;;;;;;;6348615;28;19931;-78
2023/08/20 17:44:56;;;;;;;;;;;;;;;;;;6336955;28;19928;-78
2023/08/20 17:47:57;;;;;;;;;;;;;;;;;;6347567;28;19965;-78
2023/08/20 17:50:58;;;;;;;;;;;;;;;;;;6350296;28;20211;-78
2023/08/20 17:54:00;;;;;;;;;;;;;;;;;;6345732;28;19927;-78
2023/08/20 17:57:01;;;;;;;;;;;;;;;;;;6348821;28;19983;-76
2023/08/20 18:00:02;;;;;;;;;;;;;;;;;;6347821;28;20352;-78
2023/08/20 18:03:03;;;;;;;;;;;;;;;;;;6347318;27;19932;-78
2023/08/20 18:06:05;;;;;;;;;;;;;;;;;;6343773;28;19920;-78
2023/08/20 18:09:06;;;;;;;;;;;;;;;;;;6346192;28;19990;-78
2023/08/20 18:12:07;;;;;;;;;;;;;;;;;;6345760;28;20025;-78
2023/08/20 18:15:09;;;;;;;;;;;;;;;;;;6344562;28;19927;-78
2023/08/20 18:18:10;;;;;;;;;;;;;;;;;;6347972;28;19935;-78
2023/08/20 18:21:11;;;;;;;;;;;;;;;;;;6347539;28;20077;-78
2023/08/20 18:24:13;;;;;;;;;;;;;;;;;;6345100;28;19981;-78
2023/08/20 18:27:14;;;;;;;;;;;;;;;;;;6345865;28;20039;-78
2023/08/20 18:30:16;;;;;;;;;;;;;;;;;;6346414;28;19931;-78
2023/08/20 18:33:17;;;;;;;;;;;;;;;;;;6347842;28;19927;-76
2023/08/20 18:36:18;;;;;;;;;;;;;;;;;;6343090;28;19928;-78
2023/08/20 18:39:20;;;;;;;;;;;;;;;;;;6347285;28;19943;-78
2023/08/20 18:42:21;;;;;;;;;;;;;;;;;;6346379;28;19991;-78
2023/08/20 18:45:22;;;;;;;;;;;;;;;;;;6347305;28;19939;-78
2023/08/20 18:48:23;;;;;;;;;;;;;;;;;;6346462;28;19920;-77
2023/08/20 18:51:25;;;;;;;;;;;;;;;;;;6345911;28;20005;-78
2023/08/20 18:54:26;;;;;;;;;;;;;;;;;;6348247;28;19927;-78
2023/08/20 18:57:27;;;;;;;;;;;;;;;;;;6355400;28;19928;-77
2023/08/20 19:00:29;;;;;;;;;;;;;;;;;;6355656;28;19943;-78
2023/08/20 19:03:30;;;;;;;;;;;;;;;;;;6354994;28;19927;-78
2023/08/20 19:06:32;;;;;;;;;;;;;;;;;;6355394;28;19919;-78
2023/08/20 19:09:33;;;;;;;;;;;;;;;;;;6355078;28;19928;-78
2023/08/20 19:12:34;;;;;;;;;;;;;;;;;;6353728;28;19954;-77
2023/08/20 19:15:35;;;;;;;;;;;;;;;;;;6353441;28;20082;-77
2023/08/20 19:18:37;;;;;;;;;;;;;;;;;;6354435;28;19920;-77
2023/08/20 19:21:38;;;;;;;;;;;;;;;;;;6357068;28;20024;-77
2023/08/20 19:24:39;;;;;;;;;;;;;;;;;;6353062;27;19935;-77
2023/08/20 19:27:40;;;;;;;;;;;;;;;;;;6348805;28;19928;-77
2023/08/20 19:30:41;;;;;;;;;;;;;;;;;;6345602;28;19920;-76
2023/08/20 19:33:43;;;;;;;;;;;;;;;;;;6342519;28;19927;-77
2023/08/20 19:36:44;;;;;;;;;;;;;;;;;;6342071;28;19935;-79
2023/08/20 19:39:45;;;;;;;;;;;;;;;;;;6346470;28;20176;-76
2023/08/20 19:42:46;;;;;;;;;;;;;;;;;;6343131;28;19928;-78
2023/08/20 19:45:48;;;;;;;;;;;;;;;;;;6343054;28;19932;-78
2023/08/20 19:48:49;;;;;;;;;;;;;;;;;;6342410;28;19920;-76
2023/08/20 19:51:50;;;;;;;;;;;;;;;;;;6344216;28;19965;-77
2023/08/20 19:54:51;;;;;;;;;;;;;;;;;;6340297;28;19927;-77
2023/08/20 19:57:53;;;;;;;;;;;;;;;;;;6345692;28;19927;-77
2023/08/20 20:00:54;;;;;;;;;;;;;;;;;;6343996;28;19928;-77
2023/08/20 20:03:55;;;;;;;;;;;;;;;;;;6345724;28;19923;-77
2023/08/20 20:06:57;;;;;;;;;;;;;;;;;;6343461;28;19920;-77
2023/08/20 20:09:58;;;;;;;;;;;;;;;;;;6345349;28;19955;-77
2023/08/20 20:12:59;;;;;;;;;;;;;;;;;;6344382;28;19920;-77
2023/08/20 20:16:00;;;;;;;;;;;;;;;;;;6342601;28;19928;-77
2023/08/20 20:19:02;;;;;;;;;;;;;;;;;;6343911;28;19935;-77
2023/08/20 20:22:03;;;;;;;;;;;;;;;;;;6347615;28;19927;-77
2023/08/20 20:25:05;;;;;;;;;;;;;;;;;;6342548;28;19927;-77
2023/08/20 20:28:06;;;;;;;;;;;;;;;;;;6343552;28;20081;-77
2023/08/20 20:31:08;;;;;;;;;;;;;;;;;;6344447;28;19932;-76
2023/08/20 20:34:09;;;;;;;;;;;;;;;;;;6342409;28;19942;-76
2023/08/20 20:37:10;;;;;;;;;;;;;;;;;;6344783;28;19927;-79
2023/08/20 20:40:12;;;;;;;;;;;;;;;;;;6351208;28;19919;-78